Terminal Aerodrome Forecast
Issued by NWS

Home | Current Version | Previous Version | Text Only | Print | Product List | Glossary On
Versions: 1 2 3 4 5 6 7 8 9 10 11 12 13 14 15 16 17 18 19 20 21 22 23 24 25 26 27 28 29 30
000
FTUS44 KFWD 280905 AAB
TAFAFW
TAF AMD
KAFW 280905Z 2809/2906 14010KT 6SM BR OVC006
      TEMPO 2810/2813 3SM BR OVC003
     FM281400 17008KT 5SM BR OVC006
     FM281700 18007KT P6SM BKN010
     FM281800 19011KT P6SM SCT015 SCT040=

USA.gov is the U.S. government's official web portal to all federal, state and local government web resources and services.